sensor_id;sensor_type;location;lat;lon;timestamp;pressure;altitude;pressure_sealevel;temperature;humidity
5350;BME280;2697;42.144;24.794;2023-01-04T00:00:59;-4348.59;;;3.40;100.00
5350;BME280;2697;42.144;24.794;2023-01-04T00:03:24;-4348.31;;;3.35;100.00
5350;BME280;2697;42.144;24.794;2023-01-04T00:05:49;-5010.19;;;3.28;100.00
5350;BME280;2697;42.144;24.794;2023-01-04T00:08:15;-5340.78;;;3.21;100.00
5350;BME280;2697;42.144;24.794;2023-01-04T00:10:40;-5672.09;;;3.25;100.00
5350;BME280;2697;42.144;24.794;2023-01-04T00:13:05;-6334.25;;;3.26;100.00
5350;BME280;2697;42.144;24.794;2023-01-04T00:15:31;-6995.25;;;3.17;100.00
5350;BME280;2697;42.144;24.794;2023-01-04T00:17:56;-7986.72;;;3.08;100.00
5350;BME280;2697;42.144;24.794;2023-01-04T00:20:21;-9640.41;;;3.10;100.00
5350;BME280;2697;42.144;24.794;2023-01-04T00:22:47;-10632.41;;;3.12;100.00
5350;BME280;2697;42.144;24.794;2023-01-04T00:25:12;-10962.44;;;3.09;100.00
5350;BME280;2697;42.144;24.794;2023-01-04T00:27:38;-11622.84;;;3.06;100.00
5350;BME280;2697;42.144;24.794;2023-01-04T00:30:03;-12284.16;;;3.09;100.00
5350;BME280;2697;42.144;24.794;2023-01-04T00:32:30;-12945.16;;;3.11;100.00
5350;BME280;2697;42.144;24.794;2023-01-04T00:34:55;-13275.78;;;3.12;100.00
5350;BME280;2697;42.144;24.794;2023-01-04T00:37:21;-13605.34;;;3.09;100.00
5350;BME280;2697;42.144;24.794;2023-01-04T00:39:46;-14265.91;;;3.09;100.00
5350;BME280;2697;42.144;24.794;2023-01-04T00:42:11;-14926.25;;;3.09;100.00
5350;BME280;2697;42.144;24.794;2023-01-04T00:44:37;-16251.91;;;3.31;100.00
5350;BME280;2697;42.144;24.794;2023-01-04T00:47:02;-16247.25;;;3.12;100.00
5350;BME280;2697;42.144;24.794;2023-01-04T00:49:29;-16904.28;;;3.00;100.00
5350;BME280;2697;42.144;24.794;2023-01-04T00:51:55;-17562.69;;;2.95;100.00
5350;BME280;2697;42.144;24.794;2023-01-04T00:54:21;-18221.91;;;2.94;100.00
5350;BME280;2697;42.144;24.794;2023-01-04T00:56:47;-18884.50;;;3.04;100.00
5350;BME280;2697;42.144;24.794;2023-01-04T00:59:17;-19221.19;;;3.28;100.00
5350;BME280;2697;42.144;24.794;2023-01-04T01:01:43;-18888.94;;;3.20;100.00
5350;BME280;2697;42.144;24.794;2023-01-04T01:04:11;-18889.81;;;3.23;100.00
5350;BME280;2697;42.144;24.794;2023-01-04T01:06:37;-18558.34;;;3.17;100.00
5350;BME280;2697;42.144;24.794;2023-01-04T01:09:03;-18558.50;;;3.18;100.00
5350;BME280;2697;42.144;24.794;2023-01-04T01:11:29;-18557.31;;;3.13;100.00
5350;BME280;2697;42.144;24.794;2023-01-04T01:13:55;-18557.63;;;3.14;100.00
5350;BME280;2697;42.144;24.794;2023-01-04T01:16:22;-18555.44;;;3.07;100.00
5350;BME280;2697;42.144;24.794;2023-01-04T01:18:48;-18883.31;;;3.00;100.00
5350;BME280;2697;42.144;24.794;2023-01-04T01:21:17;-19211.56;;;2.95;100.00
5350;BME280;2697;42.144;24.794;2023-01-04T01:23:43;-19206.28;;;2.77;100.00
5350;BME280;2697;42.144;24.794;2023-01-04T01:26:11;-19204.03;;;2.70;100.00
5350;BME280;2697;42.144;24.794;2023-01-04T01:28:37;-19203.13;;;2.67;100.00
5350;BME280;2697;42.144;24.794;2023-01-04T01:31:08;-19207.31;;;2.74;100.00
5350;BME280;2697;42.144;24.794;2023-01-04T01:33:38;-19193.31;;;2.34;100.00
5350;BME280;2697;42.144;24.794;2023-01-04T01:36:05;-19191.22;;;2.26;100.00
5350;BME280;2697;42.144;24.794;2023-01-04T01:38:30;-19187.28;;;2.13;100.00
5350;BME280;2697;42.144;24.794;2023-01-04T01:40:56;-19186.38;;;2.10;100.00
5350;BME280;2697;42.144;24.794;2023-01-04T01:46:09;-19185.63;;;2.08;100.00
5350;BME280;2697;42.144;24.794;2023-01-04T01:48:35;-19191.78;;;2.22;100.00
5350;BME280;2697;42.144;24.794;2023-01-04T01:51:02;-19193.59;;;2.28;100.00
5350;BME280;2697;42.144;24.794;2023-01-04T01:53:34;-19189.38;;;2.14;100.00
5350;BME280;2697;42.144;24.794;2023-01-04T01:56:03;-19188.47;;;2.11;100.00
5350;BME280;2697;42.144;24.794;2023-01-04T01:58:33;-19191.78;;;2.22;100.00
5350;BME280;2697;42.144;24.794;2023-01-04T02:01:00;-19190.88;;;2.19;100.00
5350;BME280;2697;42.144;24.794;2023-01-04T02:03:40;-19191.03;;;2.19;100.00
5350;BME280;2697;42.144;24.794;2023-01-04T02:06:09;-19189.06;;;2.13;100.00
5350;BME280;2697;42.144;24.794;2023-01-04T02:08:37;-19187.56;;;2.08;100.00
5350;BME280;2697;42.144;24.794;2023-01-04T02:11:03;-19186.97;;;2.06;100.00
5350;BME280;2697;42.144;24.794;2023-01-04T02:13:31;-19187.28;;;2.07;100.00
5350;BME280;2697;42.144;24.794;2023-01-04T02:16:32;-19186.06;;;2.03;100.00
5350;BME280;2697;42.144;24.794;2023-01-04T02:21:55;-19192.25;;;2.23;100.00
5350;BME280;2697;42.144;24.794;2023-01-04T02:32:49;-19192.41;;;2.24;100.00
5350;BME280;2697;42.144;24.794;2023-01-04T02:38:13;-19191.03;;;2.19;100.00
5350;BME280;2697;42.144;24.794;2023-01-04T02:40:55;-19189.22;;;2.13;100.00
5350;BME280;2697;42.144;24.794;2023-01-04T02:46:44;-19196.31;;;2.37;100.00
5350;BME280;2697;42.144;24.794;2023-01-04T02:49:13;-19192.69;;;2.25;100.00
5350;BME280;2697;42.144;24.794;2023-01-04T02:51:57;-19185.75;;;2.02;100.00
5350;BME280;2697;42.144;24.794;2023-01-04T02:54:26;-19187.56;;;2.08;100.00
5350;BME280;2697;42.144;24.794;2023-01-04T03:02:44;-19175.50;;;1.67;100.00
5350;BME280;2697;42.144;24.794;2023-01-04T03:08:40;-19167.06;;;1.38;100.00
5350;BME280;2697;42.144;24.794;2023-01-04T03:11:12;-19160.44;;;1.16;100.00
5350;BME280;2697;42.144;24.794;2023-01-04T03:14:01;-19159.22;;;1.12;100.00
5350;BME280;2697;42.144;24.794;2023-01-04T03:16:29;-19152.13;;;0.88;100.00
5350;BME280;2697;42.144;24.794;2023-01-04T03:18:57;-19158.31;;;1.09;100.00
5350;BME280;2697;42.144;24.794;2023-01-04T03:21:29;-19153.78;;;0.94;100.00
5350;BME280;2697;42.144;24.794;2023-01-04T03:23:57;-19148.38;;;0.75;100.00
5350;BME280;2697;42.144;24.794;2023-01-04T03:26:45;-19138.41;;;0.42;100.00
5350;BME280;2697;42.144;24.794;2023-01-04T03:29:38;-19133.72;;;0.26;100.00
5350;BME280;2697;42.144;24.794;2023-01-04T03:32:31;-19141.13;;;0.51;100.00
5350;BME280;2697;42.144;24.794;2023-01-04T03:35:26;-19144.00;;;0.61;100.00
5350;BME280;2697;42.144;24.794;2023-01-04T03:40:59;-19140.81;;;0.50;100.00
5350;BME280;2697;42.144;24.794;2023-01-04T03:43:53;-19140.66;;;0.49;100.00
5350;BME280;2697;42.144;24.794;2023-01-04T03:46:49;-19137.50;;;0.39;100.00
5350;BME280;2697;42.144;24.794;2023-01-04T03:49:54;-19136.91;;;0.37;100.00
5350;BME280;2697;42.144;24.794;2023-01-04T03:52:27;-19141.13;;;0.51;100.00
5350;BME280;2697;42.144;24.794;2023-01-04T03:54:56;-19142.63;;;0.56;100.00
5350;BME280;2697;42.144;24.794;2023-01-04T03:57:24;-19138.72;;;0.43;100.00
5350;BME280;2697;42.144;24.794;2023-01-04T03:59:58;-19141.88;;;0.53;100.00
5350;BME280;2697;42.144;24.794;2023-01-04T04:02:28;-19140.22;;;0.48;100.00
5350;BME280;2697;42.144;24.794;2023-01-04T04:04:54;-19143.25;;;0.58;100.00
5350;BME280;2697;42.144;24.794;2023-01-04T04:07:38;-19144.28;;;0.62;100.00
5350;BME280;2697;42.144;24.794;2023-01-04T04:10:22;-19142.94;;;0.57;100.00
5350;BME280;2697;42.144;24.794;2023-01-04T04:12:48;-19138.41;;;0.42;100.00
5350;BME280;2697;42.144;24.794;2023-01-04T04:15:14;-19133.88;;;0.26;100.00
5350;BME280;2697;42.144;24.794;2023-01-04T04:17:39;-19132.38;;;0.21;100.00
5350;BME280;2697;42.144;24.794;2023-01-04T04:20:05;-19134.63;;;0.29;100.00
5350;BME280;2697;42.144;24.794;2023-01-04T04:22:31;-19134.78;;;0.30;100.00
5350;BME280;2697;42.144;24.794;2023-01-04T04:24:56;-19128.59;;;0.09;100.00
5350;BME280;2697;42.144;24.794;2023-01-04T04:27:22;-19133.56;;;0.25;100.00
5350;BME280;2697;42.144;24.794;2023-01-04T04:29:47;-19136.28;;;0.35;100.00
5350;BME280;2697;42.144;24.794;2023-01-04T04:32:12;-19136.44;;;0.35;100.00
5350;BME280;2697;42.144;24.794;2023-01-04T04:34:38;-19134.50;;;0.28;100.00
5350;BME280;2697;42.144;24.794;2023-01-04T04:37:04;-19135.53;;;0.32;100.00
5350;BME280;2697;42.144;24.794;2023-01-04T04:39:29;-19136.28;;;0.35;100.00
5350;BME280;2697;42.144;24.794;2023-01-04T04:41:55;-19135.38;;;0.32;100.00
5350;BME280;2697;42.144;24.794;2023-01-04T04:44:20;-19140.53;;;0.49;100.00
5350;BME280;2697;42.144;24.794;2023-01-04T04:46:47;-19141.44;;;0.52;100.00
5350;BME280;2697;42.144;24.794;2023-01-04T04:49:13;-19141.13;;;0.51;100.00
5350;BME280;2697;42.144;24.794;2023-01-04T04:51:40;-19140.22;;;0.48;100.00
5350;BME280;2697;42.144;24.794;2023-01-04T04:54:07;-19137.19;;;0.38;100.00
5350;BME280;2697;42.144;24.794;2023-01-04T04:56:33;-19142.94;;;0.57;100.00
5350;BME280;2697;42.144;24.794;2023-01-04T04:59:00;-19143.84;;;0.60;100.00
5350;BME280;2697;42.144;24.794;2023-01-04T05:01:26;-19142.03;;;0.54;100.00
5350;BME280;2697;42.144;24.794;2023-01-04T05:03:51;-19145.81;;;0.67;100.00
5350;BME280;2697;42.144;24.794;2023-01-04T05:06:16;-19143.69;;;0.60;100.00
5350;BME280;2697;42.144;24.794;2023-01-04T05:08:42;-19135.69;;;0.33;100.00
5350;BME280;2697;42.144;24.794;2023-01-04T05:11:09;-19132.69;;;0.22;100.00
5350;BME280;2697;42.144;24.794;2023-01-04T05:13:34;-19128.44;;;0.08;100.00
5350;BME280;2697;42.144;24.794;2023-01-04T05:16:00;-19127.84;;;0.06;100.00
5350;BME280;2697;42.144;24.794;2023-01-04T05:18:26;-19129.97;;;0.13;100.00
5350;BME280;2697;42.144;24.794;2023-01-04T05:20:51;-19127.25;;;0.04;100.00
5350;BME280;2697;42.144;24.794;2023-01-04T05:23:18;-19127.25;;;0.04;100.00
5350;BME280;2697;42.144;24.794;2023-01-04T05:25:44;-19130.88;;;0.16;100.00
5350;BME280;2697;42.144;24.794;2023-01-04T05:28:10;-19132.22;;;0.21;100.00
5350;BME280;2697;42.144;24.794;2023-01-04T05:30:35;-19135.38;;;0.32;100.00
5350;BME280;2697;42.144;24.794;2023-01-04T05:33:18;-19136.28;;;0.35;100.00
5350;BME280;2697;42.144;24.794;2023-01-04T05:35:44;-19136.00;;;0.34;100.00
5350;BME280;2697;42.144;24.794;2023-01-04T05:38:09;-19139.63;;;0.46;100.00
5350;BME280;2697;42.144;24.794;2023-01-04T05:40:34;-19140.97;;;0.50;100.00
5350;BME280;2697;42.144;24.794;2023-01-04T05:43:00;-19140.81;;;0.50;100.00
5350;BME280;2697;42.144;24.794;2023-01-04T05:45:25;-19138.09;;;0.41;100.00
5350;BME280;2697;42.144;24.794;2023-01-04T05:47:52;-19140.22;;;0.48;100.00
5350;BME280;2697;42.144;24.794;2023-01-04T05:50:19;-19140.53;;;0.49;100.00
5350;BME280;2697;42.144;24.794;2023-01-04T05:52:45;-19139.16;;;0.44;100.00
5350;BME280;2697;42.144;24.794;2023-01-04T05:55:11;-19143.25;;;0.58;100.00
5350;BME280;2697;42.144;24.794;2023-01-04T05:57:37;-19139.31;;;0.45;100.00
5350;BME280;2697;42.144;24.794;2023-01-04T06:00:04;-19144.75;;;0.63;100.00
5350;BME280;2697;42.144;24.794;2023-01-04T06:02:30;-19142.63;;;0.56;100.00
5350;BME280;2697;42.144;24.794;2023-01-04T06:04:56;-19142.19;;;0.54;100.00
5350;BME280;2697;42.144;24.794;2023-01-04T06:07:22;-19141.56;;;0.52;100.00
5350;BME280;2697;42.144;24.794;2023-01-04T06:09:47;-19143.25;;;0.58;100.00
5350;BME280;2697;42.144;24.794;2023-01-04T06:12:13;-19142.78;;;0.56;100.00
5350;BME280;2697;42.144;24.794;2023-01-04T06:14:40;-19143.53;;;0.59;100.00
5350;BME280;2697;42.144;24.794;2023-01-04T06:17:06;-19146.09;;;0.68;100.00
5350;BME280;2697;42.144;24.794;2023-01-04T06:19:32;-19151.97;;;0.88;100.00
5350;BME280;2697;42.144;24.794;2023-01-04T06:21:58;-19152.28;;;0.89;100.00
5350;BME280;2697;42.144;24.794;2023-01-04T06:24:23;-19153.19;;;0.92;100.00
5350;BME280;2697;42.144;24.794;2023-01-04T06:26:49;-19155.00;;;0.98;100.00
5350;BME280;2697;42.144;24.794;2023-01-04T06:29:14;-19160.13;;;1.15;100.00
5350;BME280;2697;42.144;24.794;2023-01-04T06:31:40;-19162.25;;;1.22;100.00
5350;BME280;2697;42.144;24.794;2023-01-04T06:34:05;-19164.34;;;1.29;100.00
5350;BME280;2697;42.144;24.794;2023-01-04T06:36:31;-19163.44;;;1.26;100.00
5350;BME280;2697;42.144;24.794;2023-01-04T06:38:57;-19164.19;;;1.29;100.00
5350;BME280;2697;42.144;24.794;2023-01-04T06:41:23;-19170.97;;;1.52;100.00
5350;BME280;2697;42.144;24.794;2023-01-04T06:43:48;-19176.41;;;1.70;100.00
5350;BME280;2697;42.144;24.794;2023-01-04T06:46:14;-19178.97;;;1.79;100.00
5350;BME280;2697;42.144;24.794;2023-01-04T06:48:41;-19175.50;;;1.67;100.00
5350;BME280;2697;42.144;24.794;2023-01-04T06:51:06;-19178.22;;;1.76;100.00
5350;BME280;2697;42.144;24.794;2023-01-04T06:53:32;-19183.34;;;1.93;100.00
5350;BME280;2697;42.144;24.794;2023-01-04T06:55:57;-19184.09;;;1.96;100.00
5350;BME280;2697;42.144;24.794;2023-01-04T06:58:23;-19180.34;;;1.83;100.00
5350;BME280;2697;42.144;24.794;2023-01-04T07:00:52;-19181.53;;;1.87;100.00
5350;BME280;2697;42.144;24.794;2023-01-04T07:03:17;-19190.72;;;2.18;100.00
5350;BME280;2697;42.144;24.794;2023-01-04T07:05:43;-19193.00;;;2.26;100.00
5350;BME280;2697;42.144;24.794;2023-01-04T07:08:09;-19192.69;;;2.25;100.00
5350;BME280;2697;42.144;24.794;2023-01-04T07:10:35;-19184.25;;;1.96;100.00
5350;BME280;2697;42.144;24.794;2023-01-04T07:13:01;-19195.56;;;2.35;100.00
5350;BME280;2697;42.144;24.794;2023-01-04T07:15:26;-19199.63;;;2.48;100.00
5350;BME280;2697;42.144;24.794;2023-01-04T07:17:52;-19201.72;;;2.55;100.00
5350;BME280;2697;42.144;24.794;2023-01-04T07:20:17;-19205.81;;;2.69;100.00
5350;BME280;2697;42.144;24.794;2023-01-04T07:22:42;-19206.72;;;2.72;100.00
5350;BME280;2697;42.144;24.794;2023-01-04T07:25:08;-19212.28;;;2.91;100.00
5350;BME280;2697;42.144;24.794;2023-01-04T07:27:33;-19215.28;;;3.01;100.00
5350;BME280;2697;42.144;24.794;2023-01-04T07:29:59;-19221.03;;;3.21;100.00
5350;BME280;2697;42.144;24.794;2023-01-04T07:32:24;-19214.41;;;2.98;100.00
5350;BME280;2697;42.144;24.794;2023-01-04T07:34:50;-19225.25;;;3.35;100.00
5350;BME280;2697;42.144;24.794;2023-01-04T07:37:15;-19229.75;;;3.50;100.00
5350;BME280;2697;42.144;24.794;2023-01-04T07:39:42;-19231.88;;;3.57;100.00
5350;BME280;2697;42.144;24.794;2023-01-04T07:42:11;-19234.56;;;3.66;100.00
5350;BME280;2697;42.144;24.794;2023-01-04T07:44:36;-19241.50;;;3.90;100.00
5350;BME280;2697;42.144;24.794;2023-01-04T07:47:02;-19240.91;;;3.88;100.00
5350;BME280;2697;42.144;24.794;2023-01-04T07:49:28;-19241.66;;;3.90;100.00
5350;BME280;2697;42.144;24.794;2023-01-04T07:51:53;-19246.03;;;4.05;100.00
5350;BME280;2697;42.144;24.794;2023-01-04T07:54:19;-19251.44;;;4.23;100.00
5350;BME280;2697;42.144;24.794;2023-01-04T07:56:45;-19255.06;;;4.36;100.00
5350;BME280;2697;42.144;24.794;2023-01-04T07:59:13;-19255.53;;;4.44;100.00
5350;BME280;2697;42.144;24.794;2023-01-04T08:01:39;-19257.94;;;4.52;100.00
5350;BME280;2697;42.144;24.794;2023-01-04T08:04:06;-19261.25;;;4.63;100.00
5350;BME280;2697;42.144;24.794;2023-01-04T08:06:33;-19268.91;;;4.82;100.00
5350;BME280;2697;42.144;24.794;2023-01-04T08:08:58;-19279.00;;;5.17;100.00
5350;BME280;2697;42.144;24.794;2023-01-04T08:11:24;-19277.03;;;5.10;100.00
5350;BME280;2697;42.144;24.794;2023-01-04T08:13:50;-19272.66;;;4.95;100.00
5350;BME280;2697;42.144;24.794;2023-01-04T08:16:24;-19281.84;;;5.26;100.00
5350;BME280;2697;42.144;24.794;2023-01-04T08:18:57;-19278.09;;;5.13;100.00
5350;BME280;2697;42.144;24.794;2023-01-04T08:21:23;-19281.56;;;5.25;100.00
5350;BME280;2697;42.144;24.794;2023-01-04T08:23:49;-19285.59;;;5.39;100.00
5350;BME280;2697;42.144;24.794;2023-01-04T08:26:16;-19291.94;;;5.60;100.00
5350;BME280;2697;42.144;24.794;2023-01-04T08:28:42;-19298.56;;;5.83;100.00
5350;BME280;2697;42.144;24.794;2023-01-04T08:31:12;-19296.16;;;5.81;100.00
5350;BME280;2697;42.144;24.794;2023-01-04T08:33:40;-18966.84;;;5.88;100.00
5350;BME280;2697;42.144;24.794;2023-01-04T08:36:26;-18304.59;;;5.89;100.00
5350;BME280;2697;42.144;24.794;2023-01-04T08:38:54;-15655.66;;;6.02;100.00
5350;BME280;2697;42.144;24.794;2023-01-04T08:41:20;-13335.53;;;6.13;100.00
5350;BME280;2697;42.144;24.794;2023-01-04T08:43:45;-11345.69;;;6.26;100.00
5350;BME280;2697;42.144;24.794;2023-01-04T08:46:12;-10683.81;;;6.42;100.00
5350;BME280;2697;42.144;24.794;2023-01-04T08:48:38;-8358.59;;;6.56;100.00
5350;BME280;2697;42.144;24.794;2023-01-04T08:51:10;-4698.25;;;6.55;100.00
5350;BME280;2697;42.144;24.794;2023-01-04T08:53:37;-3701.41;;;7.02;100.00
5350;BME280;2697;42.144;24.794;2023-01-04T08:56:03;1300.19;;;6.94;100.00
5350;BME280;2697;42.144;24.794;2023-01-04T08:58:30;2969.53;;;7.06;100.00
5350;BME280;2697;42.144;24.794;2023-01-04T09:01:09;1635.72;;;7.36;100.00
5350;BME280;2697;42.144;24.794;2023-01-04T09:03:36;3975.84;;;7.62;100.00
5350;BME280;2697;42.144;24.794;2023-01-04T09:06:19;2306.59;;;7.90;100.00
5350;BME280;2697;42.144;24.794;2023-01-04T09:08:44;12018.25;;;8.20;100.00
5350;BME280;2697;42.144;24.794;2023-01-04T09:11:15;9674.56;;;8.34;100.00
5350;BME280;2697;42.144;24.794;2023-01-04T09:13:42;14373.94;;;8.53;100.00
5350;BME280;2697;42.144;24.794;2023-01-04T09:16:13;21098.19;;;8.69;100.00
5350;BME280;2697;42.144;24.794;2023-01-04T09:18:39;31207.16;;;8.82;100.00
5350;BME280;2697;42.144;24.794;2023-01-04T09:21:06;38314.31;;;9.11;100.00
5350;BME280;2697;42.144;24.794;2023-01-04T09:23:31;52881.56;;;9.18;100.00
5350;BME280;2697;42.144;24.794;2023-01-04T09:25:58;58329.94;;;9.34;100.00
5350;BME280;2697;42.144;24.794;2023-01-04T09:28:24;59036.78;;;9.62;100.00
5350;BME280;2697;42.144;24.794;2023-01-04T09:30:50;52261.69;;;9.85;100.00
5350;BME280;2697;42.144;24.794;2023-01-04T09:33:15;75087.75;;;9.90;100.00
5350;BME280;2697;42.144;24.794;2023-01-04T09:35:41;86068.78;;;10.15;100.00
5350;BME280;2697;42.144;24.794;2023-01-04T09:38:06;82667.34;;;10.32;100.00
5350;BME280;2697;42.144;24.794;2023-01-04T09:40:54;108106.91;;;10.41;100.00
5350;BME280;2697;42.144;24.794;2023-01-04T09:43:23;131668.94;;;10.67;100.00
5350;BME280;2697;42.144;24.794;2023-01-04T09:45:52;134817.75;;;10.78;100.00
5350;BME280;2697;42.144;24.794;2023-01-04T09:48:26;150537.72;;;10.84;100.00
5350;BME280;2697;42.144;24.794;2023-01-04T09:50:57;155441.44;;;11.14;100.00
5350;BME280;2697;42.144;24.794;2023-01-04T09:56:32;155542.88;;;11.54;100.00
5350;BME280;2697;42.144;24.794;2023-01-04T09:59:02;155573.22;;;11.65;100.00
5350;BME280;2697;42.144;24.794;2023-01-04T10:01:40;155570.59;;;11.64;100.00
5350;BME280;2697;42.144;24.794;2023-01-04T10:06:32;155628.59;;;11.87;100.00
5350;BME280;2697;42.144;24.794;2023-01-04T10:09:02;155658.91;;;11.98;100.00
5350;BME280;2697;42.144;24.794;2023-01-04T10:14:15;155730.09;;;12.26;100.00
5350;BME280;2697;42.144;24.794;2023-01-04T10:23:01;155869.91;;;12.80;100.00
5350;BME280;2697;42.144;24.794;2023-01-04T10:25:49;155883.13;;;12.85;100.00
5350;BME280;2697;42.144;24.794;2023-01-04T10:31:15;155881.81;;;12.84;100.00
5350;BME280;2697;42.144;24.794;2023-01-04T10:33:53;155897.59;;;12.91;100.00
5350;BME280;2697;42.144;24.794;2023-01-04T10:36:26;155929.31;;;13.03;100.00
5350;BME280;2697;42.144;24.794;2023-01-04T10:39:03;156016.41;;;13.36;100.00
5350;BME280;2697;42.144;24.794;2023-01-04T10:41:43;156094.25;;;13.66;100.00
5350;BME280;2697;42.144;24.794;2023-01-04T10:44:19;156188.00;;;14.03;100.00
5350;BME280;2697;42.144;24.794;2023-01-04T10:47:03;156206.50;;;14.10;100.00
5350;BME280;2697;42.144;24.794;2023-01-04T10:49:51;156217.03;;;14.14;100.00
5350;BME280;2697;42.144;24.794;2023-01-04T10:52:38;156269.91;;;14.34;100.00
5350;BME280;2697;42.144;24.794;2023-01-04T11:00:24;156296.31;;;14.44;100.00
5350;BME280;2697;42.144;24.794;2023-01-04T11:03:14;156304.25;;;14.47;100.00
5350;BME280;2697;42.144;24.794;2023-01-04T11:06:09;156320.13;;;14.53;100.00
5350;BME280;2697;42.144;24.794;2023-01-04T11:08:56;156297.66;;;14.45;100.00
5350;BME280;2697;42.144;24.794;2023-01-04T11:11:30;156324.09;;;14.55;100.00
5350;BME280;2697;42.144;24.794;2023-01-04T11:13:56;156338.59;;;14.61;100.00
5350;BME280;2697;42.144;24.794;2023-01-04T11:16:24;156357.09;;;14.68;98.01
5350;BME280;2697;42.144;24.794;2023-01-04T11:18:50;156358.41;;;14.68;97.67
5350;BME280;2697;42.144;24.794;2023-01-04T11:21:19;156388.81;;;14.80;96.26
5350;BME280;2697;42.144;24.794;2023-01-04T11:23:45;156370.31;;;14.73;94.76
5350;BME280;2697;42.144;24.794;2023-01-04T11:26:23;156374.28;;;14.74;96.12
5350;BME280;2697;42.144;24.794;2023-01-04T11:28:59;156378.22;;;14.76;94.58
5350;BME280;2697;42.144;24.794;2023-01-04T11:34:05;156428.44;;;14.95;90.63
5350;BME280;2697;42.144;24.794;2023-01-04T11:38:56;156472.03;;;15.12;88.62
5350;BME280;2697;42.144;24.794;2023-01-04T11:41:22;156450.91;;;15.04;90.72
5350;BME280;2697;42.144;24.794;2023-01-04T11:43:58;156428.44;;;14.95;89.02
5350;BME280;2697;42.144;24.794;2023-01-04T11:46:25;156369.00;;;14.72;90.37
5350;BME280;2697;42.144;24.794;2023-01-04T11:48:51;156388.81;;;14.80;90.23
5350;BME280;2697;42.144;24.794;2023-01-04T11:56:37;156428.44;;;14.95;88.25
5350;BME280;2697;42.144;24.794;2023-01-04T11:59:10;156433.69;;;14.97;88.63
5350;BME280;2697;42.144;24.794;2023-01-04T12:01:45;156477.31;;;15.14;87.09
5350;BME280;2697;42.144;24.794;2023-01-04T12:04:14;156499.78;;;15.23;88.02
5350;BME280;2697;42.144;24.794;2023-01-04T12:06:47;156511.72;;;15.27;87.35
5350;BME280;2697;42.144;24.794;2023-01-04T12:09:15;156539.44;;;15.38;85.07
5350;BME280;2697;42.144;24.794;2023-01-04T12:11:54;156515.66;;;15.29;84.75
5350;BME280;2697;42.144;24.794;2023-01-04T12:17:10;156509.06;;;15.26;86.38
5350;BME280;2697;42.144;24.794;2023-01-04T12:19:40;156472.03;;;15.12;87.77
5350;BME280;2697;42.144;24.794;2023-01-04T12:22:18;156510.38;;;15.27;87.23
5350;BME280;2697;42.144;24.794;2023-01-04T12:24:45;156547.38;;;15.41;86.07
5350;BME280;2697;42.144;24.794;2023-01-04T12:27:14;156523.56;;;15.32;86.92
5350;BME280;2697;42.144;24.794;2023-01-04T12:29:41;156516.97;;;15.29;86.50
5350;BME280;2697;42.144;24.794;2023-01-04T12:37:02;156547.38;;;15.41;86.00
5350;BME280;2697;42.144;24.794;2023-01-04T12:42:23;156551.31;;;15.43;85.41
5350;BME280;2697;42.144;24.794;2023-01-04T12:50:14;156528.84;;;15.34;83.66
5350;BME280;2697;42.144;24.794;2023-01-04T12:52:43;156513.03;;;15.28;83.91
5350;BME280;2697;42.144;24.794;2023-01-04T12:57:48;156536.81;;;15.37;83.05
5350;BME280;2697;42.144;24.794;2023-01-04T13:00:15;156520.94;;;15.31;83.28
5350;BME280;2697;42.144;24.794;2023-01-04T13:02:45;156557.97;;;15.45;82.74
5350;BME280;2697;42.144;24.794;2023-01-04T13:07:45;156547.38;;;15.41;82.38
5350;BME280;2697;42.144;24.794;2023-01-04T13:10:41;156538.13;;;15.37;81.66
5350;BME280;2697;42.144;24.794;2023-01-04T13:18:58;156460.13;;;15.07;81.09
5350;BME280;2697;42.144;24.794;2023-01-04T13:21:44;156456.16;;;15.06;79.86
5350;BME280;2697;42.144;24.794;2023-01-04T13:24:29;156420.50;;;14.92;79.94
5350;BME280;2697;42.144;24.794;2023-01-04T13:26:55;156412.59;;;14.89;80.72
5350;BME280;2697;42.144;24.794;2023-01-04T13:31:57;156441.66;;;15.00;81.84
5350;BME280;2697;42.144;24.794;2023-01-04T13:34:42;156482.59;;;15.16;80.79
5350;BME280;2697;42.144;24.794;2023-01-04T13:39:43;156439.03;;;14.99;81.71
5350;BME280;2697;42.144;24.794;2023-01-04T13:47:57;156404.66;;;14.86;82.72
5350;BME280;2697;42.144;24.794;2023-01-04T13:52:58;156409.91;;;14.88;81.43
5350;BME280;2697;42.144;24.794;2023-01-04T13:55:27;156367.69;;;14.72;82.30
5350;BME280;2697;42.144;24.794;2023-01-04T13:57:57;156325.41;;;14.56;83.16
5350;BME280;2697;42.144;24.794;2023-01-04T14:00:24;156309.53;;;14.49;82.87
5350;BME280;2697;42.144;24.794;2023-01-04T14:05:37;156292.34;;;14.43;82.84
5350;BME280;2697;42.144;24.794;2023-01-04T14:08:10;156264.56;;;14.32;83.42
5350;BME280;2697;42.144;24.794;2023-01-04T14:10:36;156243.50;;;14.24;84.04
5350;BME280;2697;42.144;24.794;2023-01-04T14:13:07;156217.03;;;14.14;85.06
5350;BME280;2697;42.144;24.794;2023-01-04T14:15:34;156231.56;;;14.19;84.47
5350;BME280;2697;42.144;24.794;2023-01-04T14:17:59;156221.03;;;14.15;85.49
5350;BME280;2697;42.144;24.794;2023-01-04T14:22:55;156190.63;;;14.04;86.81
5350;BME280;2697;42.144;24.794;2023-01-04T14:33:30;156090.31;;;13.65;89.46
5350;BME280;2697;42.144;24.794;2023-01-04T14:36:03;156046.75;;;13.48;90.92
5350;BME280;2697;42.144;24.794;2023-01-04T14:38:53;156021.66;;;13.38;92.13
5350;BME280;2697;42.144;24.794;2023-01-04T14:41:27;156029.63;;;13.42;91.58
5350;BME280;2697;42.144;24.794;2023-01-04T14:44:13;156019.03;;;13.37;92.47
5350;BME280;2697;42.144;24.794;2023-01-04T14:46:40;156017.72;;;13.37;93.11
5350;BME280;2697;42.144;24.794;2023-01-04T14:49:10;156025.63;;;13.40;92.59
5350;BME280;2697;42.144;24.794;2023-01-04T14:54:39;155958.31;;;13.14;94.58
5350;BME280;2697;42.144;24.794;2023-01-04T14:57:04;155896.28;;;12.90;96.33
5350;BME280;2697;42.144;24.794;2023-01-04T14:59:30;155831.63;;;12.65;100.00
5350;BME280;2697;42.144;24.794;2023-01-04T15:01:56;155798.69;;;12.52;100.00
5350;BME280;2697;42.144;24.794;2023-01-04T15:04:22;155744.63;;;12.32;100.00
5350;BME280;2697;42.144;24.794;2023-01-04T15:06:56;155743.31;;;12.31;100.00
5350;BME280;2697;42.144;24.794;2023-01-04T15:09:22;155690.59;;;12.11;100.00
5350;BME280;2697;42.144;24.794;2023-01-04T15:11:48;155734.06;;;12.27;100.00
5350;BME280;2697;42.144;24.794;2023-01-04T15:14:14;155709.00;;;12.18;100.00